Terminal Aerodrome Forecast
Issued by NWS

Home | Current Version | Previous Version | Text Only | Print | Product List | Glossary On
Versions: 1 2 3 4 5 6 7 8 9 10 11 12 13 14 15 16 17 18 19
000
FTUS42 TJSJ 181700 RRA
TAFJSJ
TAF
TJSJ 181744Z 1818/1918 02013KT P6SM VCSH FEW026 SCT035 BKN080
     FM182200 06006KT P6SM SCT030
     FM191400 05011KT P6SM VCSH SCT030 SCT070=

USA.gov is the U.S. government's official web portal to all federal, state and local government web resources and services.